Time;durP1;ratioP1;P1;durP2;ratioP2;P2;SDS_P1;SDS_P2;PMS_P1;PMS_P2;Temp;Humidity;BMP_temperature;BMP_pressure;BME280_temperature;BME280_humidity;BME280_pressure;Samples;Min_cycle;Max_cycle;Signal;HPM_P1;HPM_P2
2022/10/03 00:01:32;;;;;;;14.53;3.20;;;;;;;;;;5094798;28;20322;-77
2022/10/03 00:04:09;;;;;;;13.13;3.70;;;;;;;;;;5096765;28;20263;-77
2022/10/03 00:06:43;;;;;;;11.70;3.30;;;;;;;;;;5096847;28;20570;-77
2022/10/03 00:09:20;;;;;;;13.10;3.20;;;;;;;;;;5080938;28;20237;-77
2022/10/03 00:12:00;;;;;;;17.27;3.70;;;;;;;;;;5076076;28;20222;-76
2022/10/03 00:14:33;;;;;;;14.87;2.90;;;;;;;;;;5076285;28;20316;-77
2022/10/03 00:17:04;;;;;;;12.80;3.10;;;;;;;;;;5076750;28;20244;-76
2022/10/03 00:19:40;;;;;;;14.50;3.47;;;;;;;;;;5076323;28;20248;-76
2022/10/03 00:22:17;;;;;;;11.93;3.00;;;;;;;;;;5075599;28;20294;-77
2022/10/03 00:24:54;;;;;;;17.30;3.33;;;;;;;;;;5075693;28;20222;-77
2022/10/03 00:27:30;;;;;;;14.33;3.37;;;;;;;;;;5076180;28;20210;-77
2022/10/03 00:30:05;;;;;;;14.90;3.53;;;;;;;;;;5075935;28;20285;-77
2022/10/03 00:32:42;;;;;;;14.13;3.30;;;;;;;;;;5075964;28;20267;-77
2022/10/03 00:35:21;;;;;;;12.43;3.93;;;;;;;;;;5076011;28;20593;-77
2022/10/03 00:38:01;;;;;;;11.73;3.17;;;;;;;;;;5091640;28;20270;-77
2022/10/03 00:40:57;;;;;;;16.57;3.27;;;;;;;;;;5095846;28;20304;-76
2022/10/03 00:43:55;;;;;;;12.33;3.20;;;;;;;;;;5060340;28;20597;-77
2022/10/03 00:46:38;;;;;;;14.83;3.60;;;;;;;;;;5074241;28;20297;-77
2022/10/03 00:49:29;;;;;;;11.87;3.07;;;;;;;;;;5062364;28;20205;-76
2022/10/03 00:52:06;;;;;;;11.80;3.30;;;;;;;;;;5090159;28;20248;-76
2022/10/03 00:54:53;;;;;;;13.30;2.90;;;;;;;;;;5075419;28;20730;-76
2022/10/03 00:57:29;;;;;;;10.87;2.80;;;;;;;;;;5075750;28;20214;-76
2022/10/03 01:00:05;;;;;;;13.73;3.07;;;;;;;;;;5082658;28;20281;-76
2022/10/03 01:02:48;;;;;;;12.37;3.30;;;;;;;;;;5094322;28;20257;-77
2022/10/03 01:05:24;;;;;;;18.30;3.70;;;;;;;;;;5081945;28;20248;-77
2022/10/03 01:08:02;;;;;;;12.43;3.80;;;;;;;;;;5077619;28;20245;-76
2022/10/03 01:10:35;;;;;;;13.53;3.10;;;;;;;;;;5078674;28;20198;-77
2022/10/03 01:13:12;;;;;;;12.83;3.63;;;;;;;;;;5082042;28;20654;-76
2022/10/03 01:15:46;;;;;;;11.50;2.90;;;;;;;;;;5094937;28;20666;-77
2022/10/03 01:18:19;;;;;;;14.63;3.07;;;;;;;;;;5094819;28;20198;-75
2022/10/03 01:20:55;;;;;;;18.10;4.07;;;;;;;;;;5093360;28;20300;-76
2022/10/03 01:23:38;;;;;;;15.70;3.33;;;;;;;;;;5094657;28;20222;-77
2022/10/03 01:26:12;;;;;;;14.63;3.07;;;;;;;;;;5085984;28;20229;-76
2022/10/03 01:31:33;;;;;;;12.10;3.53;;;;;;;;;;5091146;28;20206;-76
2022/10/03 01:34:06;;;;;;;16.73;3.20;;;;;;;;;;5095015;28;20750;-77
2022/10/03 01:36:39;;;;;;;17.00;3.07;;;;;;;;;;5078316;28;20702;-77
2022/10/03 01:39:12;;;;;;;10.43;2.63;;;;;;;;;;5074899;28;20618;-76
2022/10/03 01:41:45;;;;;;;13.93;3.47;;;;;;;;;;5078207;28;20250;-76
2022/10/03 01:44:23;;;;;;;14.30;3.00;;;;;;;;;;5074629;28;20222;-76
2022/10/03 01:46:55;;;;;;;16.80;3.90;;;;;;;;;;5078785;28;20650;-76
2022/10/03 01:49:28;;;;;;;14.30;3.20;;;;;;;;;;5094692;28;20661;-77
2022/10/03 01:52:00;;;;;;;13.90;3.53;;;;;;;;;;5095240;28;20511;-77
2022/10/03 01:54:33;;;;;;;14.63;3.40;;;;;;;;;;5090550;28;20257;-77
2022/10/03 01:57:03;;;;;;;13.37;3.77;;;;;;;;;;5074348;28;20277;-76
2022/10/03 01:59:38;;;;;;;13.70;2.93;;;;;;;;;;5074248;28;20229;-76
2022/10/03 02:02:09;;;;;;;9.97;2.90;;;;;;;;;;5074179;28;20676;-76
2022/10/03 02:04:43;;;;;;;16.50;3.47;;;;;;;;;;5074253;28;20226;-76
2022/10/03 02:07:20;;;;;;;16.37;3.27;;;;;;;;;;5074396;28;20225;-76
2022/10/03 02:09:58;;;;;;;14.67;3.80;;;;;;;;;;5073755;28;20681;-76
2022/10/03 02:12:33;;;;;;;15.23;3.20;;;;;;;;;;5073974;28;20226;-76
2022/10/03 02:15:08;;;;;;;14.50;3.20;;;;;;;;;;5073965;28;20182;-76
2022/10/03 02:17:45;;;;;;;13.13;3.80;;;;;;;;;;5080967;28;20228;-76
2022/10/03 02:20:22;;;;;;;15.03;3.20;;;;;;;;;;5094138;28;20240;-77
2022/10/03 02:22:52;;;;;;;14.83;3.03;;;;;;;;;;5090921;28;20222;-76
2022/10/03 02:25:24;;;;;;;13.97;3.23;;;;;;;;;;5077469;28;20230;-77
2022/10/03 02:28:11;;;;;;;24.27;3.60;;;;;;;;;;5074464;28;20233;-77
2022/10/03 02:30:47;;;;;;;11.47;3.17;;;;;;;;;;5082606;28;20189;-77
2022/10/03 02:33:33;;;;;;;16.83;3.63;;;;;;;;;;5094214;28;20221;-75
2022/10/03 02:36:19;;;;;;;13.40;3.00;;;;;;;;;;5093695;28;20292;-77
2022/10/03 02:39:01;;;;;;;14.03;3.50;;;;;;;;;;5078281;28;20380;-77
2022/10/03 02:41:44;;;;;;;17.63;3.53;;;;;;;;;;5081490;28;20312;-77
2022/10/03 02:44:27;;;;;;;15.13;3.80;;;;;;;;;;5073910;28;20256;-76
2022/10/03 02:47:19;;;;;;;13.70;3.47;;;;;;;;;;5073412;28;20264;-77
2022/10/03 02:50:09;;;;;;;20.03;3.70;;;;;;;;;;5093838;28;20230;-76
2022/10/03 02:52:52;;;;;;;13.87;3.30;;;;;;;;;;5080868;28;20251;-76
2022/10/03 02:55:27;;;;;;;12.97;3.90;;;;;;;;;;5073559;28;20297;-77
2022/10/03 02:58:14;;;;;;;14.00;3.67;;;;;;;;;;5073288;28;20277;-77
2022/10/03 03:00:53;;;;;;;13.33;3.10;;;;;;;;;;5053196;28;20249;-77
2022/10/03 03:03:37;;;;;;;13.53;3.17;;;;;;;;;;5073484;28;20253;-77
2022/10/03 03:06:24;;;;;;;14.53;3.30;;;;;;;;;;5071481;28;20285;-77
2022/10/03 03:09:01;;;;;;;13.50;3.40;;;;;;;;;;5074203;28;20636;-77
2022/10/03 03:11:46;;;;;;;13.83;3.60;;;;;;;;;;5077384;28;20287;-77
2022/10/03 03:14:23;;;;;;;12.17;3.30;;;;;;;;;;5077298;28;20308;-77
2022/10/03 03:17:12;;;;;;;13.10;3.60;;;;;;;;;;5076837;28;20320;-77
2022/10/03 03:19:51;;;;;;;12.40;3.40;;;;;;;;;;5076839;28;20234;-77
2022/10/03 03:22:31;;;;;;;15.37;3.63;;;;;;;;;;5076707;28;20210;-77
2022/10/03 03:25:08;;;;;;;14.23;3.20;;;;;;;;;;5077129;28;20202;-76
2022/10/03 03:27:46;;;;;;;13.70;3.13;;;;;;;;;;5076980;28;20206;-76
2022/10/03 03:30:17;;;;;;;17.17;3.73;;;;;;;;;;5076616;28;20213;-76
2022/10/03 03:32:52;;;;;;;12.50;3.27;;;;;;;;;;5076822;28;20312;-77
2022/10/03 03:35:27;;;;;;;15.40;3.10;;;;;;;;;;5084657;28;20190;-77
2022/10/03 03:38:02;;;;;;;17.77;3.40;;;;;;;;;;5081972;28;20209;-77
2022/10/03 03:40:37;;;;;;;19.20;4.17;;;;;;;;;;5076667;28;20301;-77
2022/10/03 03:43:15;;;;;;;13.27;3.50;;;;;;;;;;5077124;28;20740;-77
2022/10/03 03:45:49;;;;;;;13.50;3.13;;;;;;;;;;5088864;28;20239;-77
2022/10/03 03:48:27;;;;;;;14.23;2.93;;;;;;;;;;5091869;28;20205;-77
2022/10/03 03:51:02;;;;;;;15.23;3.83;;;;;;;;;;5080746;28;20602;-76
2022/10/03 03:53:40;;;;;;;14.73;3.23;;;;;;;;;;5082994;28;20258;-77
2022/10/03 03:56:16;;;;;;;16.03;3.13;;;;;;;;;;5076635;28;20257;-77
2022/10/03 03:58:50;;;;;;;12.50;3.67;;;;;;;;;;5076383;28;20179;-76
2022/10/03 04:01:33;;;;;;;11.73;3.13;;;;;;;;;;5077155;28;20194;-77
2022/10/03 04:04:09;;;;;;;16.13;3.50;;;;;;;;;;5064135;28;20258;-77
2022/10/03 04:06:45;;;;;;;14.37;3.07;;;;;;;;;;5076537;28;20255;-77
2022/10/03 04:09:31;;;;;;;13.13;3.17;;;;;;;;;;5076034;28;20241;-76
2022/10/03 04:12:07;;;;;;;19.33;3.60;;;;;;;;;;5076343;28;20293;-77
2022/10/03 04:15:02;;;;;;;14.70;3.57;;;;;;;;;;5076400;28;20254;-77
2022/10/03 04:20:31;;;;;;;14.67;3.63;;;;;;;;;;5096365;28;20239;-77
2022/10/03 04:23:09;;;;;;;15.40;3.37;;;;;;;;;;5095504;28;20229;-77
2022/10/03 04:25:49;;;;;;;15.43;3.63;;;;;;;;;;5095971;28;20236;-77
2022/10/03 04:28:31;;;;;;;14.47;3.60;;;;;;;;;;5096157;28;20277;-77
2022/10/03 04:31:06;;;;;;;12.77;3.20;;;;;;;;;;5095754;28;20659;-77
2022/10/03 04:33:43;;;;;;;13.63;3.47;;;;;;;;;;5096489;28;20249;-77
2022/10/03 04:36:30;;;;;;;14.23;3.87;;;;;;;;;;5094373;28;20186;-76
2022/10/03 04:39:02;;;;;;;16.73;3.43;;;;;;;;;;5080056;28;20236;-77
2022/10/03 04:41:37;;;;;;;11.30;3.53;;;;;;;;;;5075760;28;20183;-77
2022/10/03 04:44:20;;;;;;;12.87;3.63;;;;;;;;;;5075139;28;20234;-77
2022/10/03 04:46:51;;;;;;;12.80;3.43;;;;;;;;;;5075884;28;20233;-77
2022/10/03 04:49:25;;;;;;;12.70;3.40;;;;;;;;;;5096044;28;20230;-77
2022/10/03 04:51:58;;;;;;;12.13;3.20;;;;;;;;;;5082118;28;20624;-77
2022/10/03 04:54:30;;;;;;;17.80;4.00;;;;;;;;;;5075424;28;20218;-77
2022/10/03 04:57:02;;;;;;;15.33;3.40;;;;;;;;;;5076262;28;20225;-76
2022/10/03 04:59:39;;;;;;;14.70;3.30;;;;;;;;;;5095143;28;20339;-77
2022/10/03 05:02:13;;;;;;;13.23;3.80;;;;;;;;;;5086741;28;20228;-77
2022/10/03 05:04:45;;;;;;;14.10;4.27;;;;;;;;;;5075043;28;20301;-77
2022/10/03 05:07:18;;;;;;;12.53;3.93;;;;;;;;;;5074824;28;20679;-77
2022/10/03 05:09:50;;;;;;;14.20;3.67;;;;;;;;;;5075578;28;20619;-77
2022/10/03 05:12:27;;;;;;;11.77;3.70;;;;;;;;;;5090600;28;20202;-78
2022/10/03 05:15:13;;;;;;;10.60;3.60;;;;;;;;;;5095618;28;20190;-77
2022/10/03 05:17:45;;;;;;;17.47;3.87;;;;;;;;;;5084293;28;20242;-77
2022/10/03 05:20:25;;;;;;;14.63;3.70;;;;;;;;;;5076064;28;20230;-77
2022/10/03 05:22:59;;;;;;;14.73;3.53;;;;;;;;;;5075171;28;20265;-77
2022/10/03 05:25:32;;;;;;;18.03;3.73;;;;;;;;;;5085326;28;20279;-77
2022/10/03 05:28:05;;;;;;;12.37;3.87;;;;;;;;;;5095334;28;20646;-77
2022/10/03 05:30:43;;;;;;;12.40;3.90;;;;;;;;;;5095147;28;20190;-77
2022/10/03 05:33:19;;;;;;;11.60;3.20;;;;;;;;;;5094889;28;20253;-77
2022/10/03 05:35:51;;;;;;;15.37;3.63;;;;;;;;;;5079562;28;20284;-77
2022/10/03 05:38:26;;;;;;;12.20;3.57;;;;;;;;;;5074949;28;20236;-77
2022/10/03 05:41:02;;;;;;;9.77;3.20;;;;;;;;;;5081962;28;20254;-77
2022/10/03 05:43:37;;;;;;;12.90;2.90;;;;;;;;;;5095174;28;20237;-77
2022/10/03 05:46:14;;;;;;;15.23;3.33;;;;;;;;;;5087967;28;20281;-77
2022/10/03 05:48:46;;;;;;;10.30;3.27;;;;;;;;;;5089539;28;20205;-77
2022/10/03 05:51:33;;;;;;;11.30;3.30;;;;;;;;;;5074642;28;20581;-76
2022/10/03 05:54:34;;;;;;;14.33;3.67;;;;;;;;;;5074411;28;20244;-76
2022/10/03 05:57:12;;;;;;;12.73;3.70;;;;;;;;;;4992797;28;20776;-77
2022/10/03 05:59:45;;;;;;;13.60;3.23;;;;;;;;;;5004891;28;20200;-77
2022/10/03 06:02:31;;;;;;;14.23;3.30;;;;;;;;;;5040896;28;20207;-77
2022/10/03 06:05:12;;;;;;;10.83;3.50;;;;;;;;;;5091045;28;20213;-77
2022/10/03 06:07:46;;;;;;;16.53;3.43;;;;;;;;;;5093874;28;20209;-77
2022/10/03 06:10:25;;;;;;;13.67;3.80;;;;;;;;;;5078205;28;20285;-77
2022/10/03 06:13:02;;;;;;;15.93;3.47;;;;;;;;;;5074468;28;20215;-77
2022/10/03 06:15:45;;;;;;;13.10;3.53;;;;;;;;;;5091946;28;20236;-77
2022/10/03 06:18:32;;;;;;;12.10;3.70;;;;;;;;;;5084445;28;20214;-76
2022/10/03 06:21:15;;;;;;;13.70;3.80;;;;;;;;;;5074216;28;20210;-77
2022/10/03 06:24:01;;;;;;;13.00;3.27;;;;;;;;;;5081837;28;20663;-77
2022/10/03 06:26:39;;;;;;;10.70;3.80;;;;;;;;;;5094438;28;20221;-77
2022/10/03 06:29:25;;;;;;;12.03;3.40;;;;;;;;;;5094180;28;20292;-77
2022/10/03 06:32:11;;;;;;;12.87;3.67;;;;;;;;;;5064740;28;20297;-76
2022/10/03 06:34:57;;;;;;;10.67;3.10;;;;;;;;;;5073500;28;20262;-77
2022/10/03 06:37:34;;;;;;;14.27;3.50;;;;;;;;;;5074683;28;20644;-77
2022/10/03 06:40:22;;;;;;;12.17;3.60;;;;;;;;;;5094833;28;20182;-77
2022/10/03 06:43:01;;;;;;;16.17;4.00;;;;;;;;;;5093655;28;20218;-76
2022/10/03 06:45:43;;;;;;;14.20;3.33;;;;;;;;;;5091828;28;20283;-77
2022/10/03 06:48:24;;;;;;;15.57;3.90;;;;;;;;;;5083198;28;20247;-77
2022/10/03 06:51:08;;;;;;;16.13;4.33;;;;;;;;;;5078825;28;20578;-78
2022/10/03 06:53:44;;;;;;;14.73;4.03;;;;;;;;;;5090208;28;20209;-77
2022/10/03 06:56:37;;;;;;;9.47;3.27;;;;;;;;;;5098318;28;20280;-77
2022/10/03 06:59:24;;;;;;;11.77;3.77;;;;;;;;;;5082562;28;20233;-77
2022/10/03 07:02:02;;;;;;;11.97;3.40;;;;;;;;;;5078430;28;20293;-77
2022/10/03 07:04:48;;;;;;;10.37;3.70;;;;;;;;;;5079296;28;20238;-77
2022/10/03 07:07:35;;;;;;;10.13;3.13;;;;;;;;;;5078175;28;20674;-77
2022/10/03 07:10:30;;;;;;;12.87;3.40;;;;;;;;;;5077504;28;20690;-77
2022/10/03 07:13:31;;;;;;;13.80;4.00;;;;;;;;;;5058382;28;20229;-77
2022/10/03 07:16:29;;;;;;;8.97;3.03;;;;;;;;;;5015153;28;20203;-75
2022/10/03 07:19:14;;;;;;;10.17;3.33;;;;;;;;;;4944095;28;20660;-75
2022/10/03 07:22:12;;;;;;;10.67;3.10;;;;;;;;;;5071014;28;20625;-76
2022/10/03 07:24:59;;;;;;;13.30;3.37;;;;;;;;;;5087921;28;20247;-76
2022/10/03 07:27:39;;;;;;;8.23;3.07;;;;;;;;;;5080035;28;20222;-76
2022/10/03 07:30:09;;;;;;;10.00;3.13;;;;;;;;;;5087400;28;20247;-76
2022/10/03 07:32:57;;;;;;;11.03;3.30;;;;;;;;;;5094309;28;20233;-77
2022/10/03 07:41:31;;;;;;;10.00;2.93;;;;;;;;;;5075263;28;20289;-75
2022/10/03 07:44:20;;;;;;;10.30;2.73;;;;;;;;;;5091630;28;20264;-76
2022/10/03 07:47:09;;;;;;;8.20;3.00;;;;;;;;;;5090657;28;20233;-76
2022/10/03 07:49:49;;;;;;;9.87;2.80;;;;;;;;;;5091595;28;20198;-76
2022/10/03 07:52:33;;;;;;;12.03;2.63;;;;;;;;;;5094960;28;20635;-76
2022/10/03 07:55:21;;;;;;;10.63;2.90;;;;;;;;;;5094449;28;20225;-76
2022/10/03 07:58:07;;;;;;;9.73;3.07;;;;;;;;;;5095979;28;20243;-76
2022/10/03 08:00:43;;;;;;;9.07;2.30;;;;;;;;;;5075567;28;20249;-76
2022/10/03 08:03:34;;;;;;;9.37;2.90;;;;;;;;;;5083902;28;20281;-76
2022/10/03 08:06:12;;;;;;;10.23;2.47;;;;;;;;;;5074152;28;20203;-76
2022/10/03 08:08:51;;;;;;;10.37;2.30;;;;;;;;;;5075972;28;20245;-76
2022/10/03 08:11:47;;;;;;;9.00;2.43;;;;;;;;;;5074516;28;20190;-76
2022/10/03 08:14:19;;;;;;;9.90;2.50;;;;;;;;;;5048085;28;20305;-76
2022/10/03 08:17:07;;;;;;;13.30;2.90;;;;;;;;;;5085837;28;20230;-75
2022/10/03 08:19:47;;;;;;;9.53;2.57;;;;;;;;;;5086928;28;20273;-76
2022/10/03 08:22:21;;;;;;;6.50;2.30;;;;;;;;;;5075670;28;20651;-76
2022/10/03 08:24:55;;;;;;;8.53;2.57;;;;;;;;;;5076270;28;20644;-75
2022/10/03 08:27:38;;;;;;;9.53;2.50;;;;;;;;;;5087462;28;20266;-78
2022/10/03 08:30:30;;;;;;;14.10;2.60;;;;;;;;;;5079078;28;20289;-76
2022/10/03 08:33:12;;;;;;;10.27;2.40;;;;;;;;;;5060895;28;20242;-76
2022/10/03 08:36:10;;;;;;;8.33;2.30;;;;;;;;;;5078903;28;20226;-76
2022/10/03 08:38:54;;;;;;;8.73;2.63;;;;;;;;;;5077729;28;20241;-75
2022/10/03 08:41:49;;;;;;;8.03;2.27;;;;;;;;;;5079241;28;20294;-76
2022/10/03 08:44:28;;;;;;;9.47;2.50;;;;;;;;;;5077365;28;20256;-76
2022/10/03 08:47:22;;;;;;;8.30;2.20;;;;;;;;;;5079552;28;20213;-76
2022/10/03 08:50:09;;;;;;;9.07;2.67;;;;;;;;;;5075722;28;20202;-76
2022/10/03 08:52:47;;;;;;;7.00;2.10;;;;;;;;;;5079721;28;20573;-76
2022/10/03 08:55:31;;;;;;;7.57;2.70;;;;;;;;;;5076598;28;20710;-76
2022/10/03 08:58:10;;;;;;;9.97;2.60;;;;;;;;;;5068070;28;20226;-75
2022/10/03 09:00:51;;;;;;;9.80;2.30;;;;;;;;;;5091191;28;20228;-76
2022/10/03 09:03:32;;;;;;;7.90;2.47;;;;;;;;;;5075371;28;20271;-76
2022/10/03 09:06:39;;;;;;;7.90;2.00;;;;;;;;;;5074536;28;20682;-75
2022/10/03 09:09:45;;;;;;;8.20;2.27;;;;;;;;;;5013911;28;20219;-76
2022/10/03 09:12:30;;;;;;;9.63;2.07;;;;;;;;;;5074881;28;20600;-76
2022/10/03 09:15:06;;;;;;;10.07;2.53;;;;;;;;;;5078642;28;20645;-77
2022/10/03 09:17:54;;;;;;;8.70;2.33;;;;;;;;;;5081069;28;20632;-76
2022/10/03 09:20:43;;;;;;;7.60;2.10;;;;;;;;;;5089942;28;20201;-76
2022/10/03 09:23:38;;;;;;;11.65;2.03;;;;;;;;;;5084785;28;20254;-76
2022/10/03 09:26:20;;;;;;;6.90;1.80;;;;;;;;;;5080285;28;20244;-76
2022/10/03 09:28:58;;;;;;;10.45;2.10;;;;;;;;;;5083390;28;20198;-76
2022/10/03 09:31:47;;;;;;;9.95;2.47;;;;;;;;;;5077317;28;20301;-76
2022/10/03 09:34:51;;;;;;;7.05;2.10;;;;;;;;;;5091488;28;20633;-75
2022/10/03 09:37:37;;;;;;;8.93;2.25;;;;;;;;;;5079647;28;20606;-76
2022/10/03 09:40:23;;;;;;;8.88;2.33;;;;;;;;;;5091729;28;20235;-76
2022/10/03 09:43:00;;;;;;;9.40;2.00;;;;;;;;;;5064853;28;20743;-76
2022/10/03 09:46:02;;;;;;;6.63;1.88;;;;;;;;;;5089401;28;20744;-75
2022/10/03 09:48:38;;;;;;;6.20;1.90;;;;;;;;;;5084184;28;20579;-76
2022/10/03 09:51:21;;;;;;;6.70;2.00;;;;;;;;;;5086947;28;20543;-76
2022/10/03 09:54:15;;;;;;;6.75;2.00;;;;;;;;;;5079777;28;20255;-76
2022/10/03 09:57:04;;;;;;;8.05;2.13;;;;;;;;;;5073240;28;20289;-76
2022/10/03 09:59:50;;;;;;;6.60;1.67;;;;;;;;;;5080021;28;20213;-76
2022/10/03 10:02:33;;;;;;;6.85;2.03;;;;;;;;;;5082463;28;20288;-76
2022/10/03 10:05:14;;;;;;;8.57;2.03;;;;;;;;;;5089141;28;20271;-76
2022/10/03 10:08:04;;;;;;;5.22;1.92;;;;;;;;;;5088887;28;20209;-75
2022/10/03 10:10:45;;;;;;;5.55;1.80;;;;;;;;;;5062590;28;20225;-75
2022/10/03 10:13:27;;;;;;;5.93;1.90;;;;;;;;;;5075219;28;20249;-76
2022/10/03 10:16:37;;;;;;;5.22;1.45;;;;;;;;;;5083450;28;20655;-76
2022/10/03 10:19:21;;;;;;;8.52;1.92;;;;;;;;;;5091846;28;20209;-76
2022/10/03 10:22:12;;;;;;;10.80;2.05;;;;;;;;;;5087331;28;20643;-75
2022/10/03 10:24:55;;;;;;;11.35;2.30;;;;;;;;;;5091738;28;20237;-76
2022/10/03 10:27:37;;;;;;;7.40;2.00;;;;;;;;;;5072463;28;20237;-77
2022/10/03 10:30:19;;;;;;;10.38;2.10;;;;;;;;;;5076762;28;20288;-76
2022/10/03 10:33:15;;;;;;;8.57;1.92;;;;;;;;;;5092482;28;20601;-76
2022/10/03 10:36:05;;;;;;;7.32;1.83;;;;;;;;;;5085641;28;20630;-77
2022/10/03 10:38:46;;;;;;;5.53;1.58;;;;;;;;;;5073112;28;20206;-75
2022/10/03 10:41:33;;;;;;;6.88;1.80;;;;;;;;;;5073508;28;20222;-76
2022/10/03 10:44:20;;;;;;;7.03;1.80;;;;;;;;;;5078724;28;20334;-76
2022/10/03 10:47:03;;;;;;;6.65;1.83;;;;;;;;;;5072843;28;20268;-75
2022/10/03 10:49:45;;;;;;;9.23;2.03;;;;;;;;;;5088851;28;20201;-76
2022/10/03 10:52:28;;;;;;;8.45;2.15;;;;;;;;;;5073139;28;20263;-75
2022/10/03 10:55:15;;;;;;;7.15;1.80;;;;;;;;;;5081537;28;20252;-76
2022/10/03 10:58:04;;;;;;;4.88;2.00;;;;;;;;;;5085751;28;20439;-76
2022/10/03 11:00:43;;;;;;;5.50;1.80;;;;;;;;;;5075396;28;20210;-77
2022/10/03 11:03:26;;;;;;;6.47;1.70;;;;;;;;;;5075545;28;20217;-77
2022/10/03 11:06:14;;;;;;;4.28;1.85;;;;;;;;;;5050120;28;20226;-76
2022/10/03 11:08:51;;;;;;;7.80;1.85;;;;;;;;;;5077680;28;20297;-76
2022/10/03 11:11:38;;;;;;;7.15;1.75;;;;;;;;;;5087373;28;20288;-76
2022/10/03 11:14:23;;;;;;;6.28;1.92;;;;;;;;;;5092761;28;20673;-77
2022/10/03 11:17:07;;;;;;;8.45;1.88;;;;;;;;;;5080572;28;20217;-76
2022/10/03 11:19:52;;;;;;;4.35;1.50;;;;;;;;;;5072239;28;20225;-75
2022/10/03 11:22:45;;;;;;;6.15;1.60;;;;;;;;;;5079200;28;20190;-75
2022/10/03 11:25:32;;;;;;;6.80;1.80;;;;;;;;;;5078567;28;20277;-76
2022/10/03 11:28:18;;;;;;;6.72;2.10;;;;;;;;;;5073303;28;20202;-76
2022/10/03 11:31:18;;;;;;;7.07;1.70;;;;;;;;;;5089642;28;20577;-76
2022/10/03 11:34:05;;;;;;;4.68;1.75;;;;;;;;;;5084264;28;20226;-76
2022/10/03 11:36:51;;;;;;;5.10;1.70;;;;;;;;;;5082830;28;20234;-75
2022/10/03 11:39:24;;;;;;;6.78;1.85;;;;;;;;;;5067991;28;20260;-76
2022/10/03 11:41:56;;;;;;;3.95;1.90;;;;;;;;;;5075664;28;20612;-76
2022/10/03 11:44:28;;;;;;;7.40;1.88;;;;;;;;;;5076192;28;20663;-76
2022/10/03 11:47:03;;;;;;;6.20;1.70;;;;;;;;;;5077697;28;20246;-76
2022/10/03 11:49:45;;;;;;;3.75;1.70;;;;;;;;;;5089560;28;20198;-76
2022/10/03 11:52:22;;;;;;;4.97;1.50;;;;;;;;;;5077181;28;20269;-76
2022/10/03 11:55:00;;;;;;;6.60;1.55;;;;;;;;;;5094320;28;20266;-76
2022/10/03 11:57:30;;;;;;;4.47;1.45;;;;;;;;;;5079008;28;20270;-76
2022/10/03 12:00:02;;;;;;;5.63;1.40;;;;;;;;;;5083541;28;20233;-76
2022/10/03 12:02:47;;;;;;;6.57;1.63;;;;;;;;;;5076387;28;20559;-75
2022/10/03 12:05:20;;;;;;;6.65;1.42;;;;;;;;;;5075141;28;20205;-76
2022/10/03 12:10:56;;;;;;;5.70;1.75;;;;;;;;;;5079838;28;20705;-76
2022/10/03 12:13:31;;;;;;;4.22;1.42;;;;;;;;;;5083661;28;20274;-76
2022/10/03 12:16:01;;;;;;;5.78;1.48;;;;;;;;;;5080471;28;20199;-75
2022/10/03 12:18:49;;;;;;;6.30;1.75;;;;;;;;;;5079534;28;20203;-75
2022/10/03 12:21:21;;;;;;;5.18;1.35;;;;;;;;;;5088267;28;20198;-76
2022/10/03 12:23:58;;;;;;;4.72;1.30;;;;;;;;;;5084486;28;20226;-76
2022/10/03 12:26:42;;;;;;;3.13;1.30;;;;;;;;;;5079303;28;20313;-75
2022/10/03 12:29:12;;;;;;;4.68;1.70;;;;;;;;;;5078883;28;20194;-75
2022/10/03 12:31:42;;;;;;;4.95;1.25;;;;;;;;;;5075363;28;20293;-75
2022/10/03 12:34:30;;;;;;;5.57;1.20;;;;;;;;;;5076173;28;20226;-74
2022/10/03 12:40:03;;;;;;;6.15;1.25;;;;;;;;;;5078253;28;20202;-75
2022/10/03 12:42:35;;;;;;;3.13;1.45;;;;;;;;;;5089972;28;20202;-75
2022/10/03 12:45:07;;;;;;;5.80;1.50;;;;;;;;;;5086454;28;20354;-75
2022/10/03 12:47:43;;;;;;;5.85;1.58;;;;;;;;;;5082692;28;20300;-75
2022/10/03 12:50:30;;;;;;;6.80;1.40;;;;;;;;;;5084563;28;20289;-75
2022/10/03 12:53:13;;;;;;;3.30;1.30;;;;;;;;;;5087396;28;20311;-75
2022/10/03 12:55:46;;;;;;;4.40;1.40;;;;;;;;;;5079439;28;20216;-75
2022/10/03 12:58:20;;;;;;;2.55;1.20;;;;;;;;;;5084654;28;20186;-75
2022/10/03 13:00:57;;;;;;;5.40;1.23;;;;;;;;;;5082553;28;20240;-76
2022/10/03 13:03:32;;;;;;;3.00;1.30;;;;;;;;;;5076723;28;20225;-75
2022/10/03 13:06:16;;;;;;;4.75;1.20;;;;;;;;;;5086983;28;20713;-76
2022/10/03 13:08:53;;;;;;;5.75;1.48;;;;;;;;;;5095006;28;20186;-75
2022/10/03 13:11:31;;;;;;;4.57;1.30;;;;;;;;;;5087238;28;20209;-75
2022/10/03 13:14:06;;;;;;;3.67;1.27;;;;;;;;;;5080862;28;20229;-75
2022/10/03 13:16:38;;;;;;;4.32;1.50;;;;;;;;;;5086759;28;20258;-76
2022/10/03 13:19:09;;;;;;;5.53;1.35;;;;;;;;;;5089503;28;20206;-76
2022/10/03 13:21:46;;;;;;;4.82;1.80;;;;;;;;;;5074908;28;20193;-75
2022/10/03 13:24:21;;;;;;;3.97;1.10;;;;;;;;;;5076123;28;20272;-76
2022/10/03 13:26:54;;;;;;;5.82;1.52;;;;;;;;;;5073670;28;20242;-76
2022/10/03 13:29:28;;;;;;;3.60;1.10;;;;;;;;;;5073871;28;20260;-76
2022/10/03 13:32:11;;;;;;;5.38;1.35;;;;;;;;;;5074177;28;20206;-75
2022/10/03 13:34:52;;;;;;;4.13;1.00;;;;;;;;;;5073658;28;20564;-76
2022/10/03 13:37:26;;;;;;;3.60;1.15;;;;;;;;;;5073727;28;20256;-76
2022/10/03 13:39:58;;;;;;;5.43;1.33;;;;;;;;;;5080995;28;20702;-75
2022/10/03 13:42:33;;;;;;;4.75;1.15;;;;;;;;;;5075675;28;20281;-75
2022/10/03 13:45:03;;;;;;;3.55;1.40;;;;;;;;;;5080677;28;20225;-75
2022/10/03 13:47:41;;;;;;;4.05;1.10;;;;;;;;;;5073643;28;20593;-76
2022/10/03 13:50:15;;;;;;;4.70;1.40;;;;;;;;;;5076232;28;20191;-75
2022/10/03 13:52:46;;;;;;;5.13;1.10;;;;;;;;;;5075043;28;20289;-76
2022/10/03 13:55:19;;;;;;;4.13;1.27;;;;;;;;;;5074322;28;20234;-74
2022/10/03 13:57:53;;;;;;;4.50;1.20;;;;;;;;;;5090302;28;20225;-74
2022/10/03 14:00:25;;;;;;;3.35;1.17;;;;;;;;;;5077891;28;20346;-76
2022/10/03 14:03:01;;;;;;;3.92;1.10;;;;;;;;;;5072948;28;20222;-75
2022/10/03 14:05:38;;;;;;;4.22;1.25;;;;;;;;;;5085173;28;20211;-75
2022/10/03 14:08:10;;;;;;;4.85;1.30;;;;;;;;;;5073243;28;20241;-75
2022/10/03 14:10:52;;;;;;;2.65;1.10;;;;;;;;;;5072772;28;20195;-75
2022/10/03 14:13:27;;;;;;;6.43;1.40;;;;;;;;;;5078059;28;20275;-75
2022/10/03 14:16:06;;;;;;;6.88;1.48;;;;;;;;;;5089996;28;20229;-75
2022/10/03 14:18:43;;;;;;;3.30;1.17;;;;;;;;;;5082951;28;20611;-75
2022/10/03 14:21:29;;;;;;;4.70;1.48;;;;;;;;;;5074027;28;20194;-74
2022/10/03 14:24:03;;;;;;;6.07;1.60;;;;;;;;;;5077443;28;20226;-75
2022/10/03 14:26:38;;;;;;;6.18;1.20;;;;;;;;;;4734872;28;9999612;-75
2022/10/03 14:29:11;;;;;;;4.57;1.25;;;;;;;;;;5085380;28;20244;-75
2022/10/03 14:31:47;;;;;;;6.22;1.55;;;;;;;;;;5071301;28;20210;-75
2022/10/03 14:34:26;;;;;;;4.40;1.67;;;;;;;;;;5082325;28;20232;-75
2022/10/03 14:36:58;;;;;;;5.75;1.25;;;;;;;;;;5079727;28;20198;-75
2022/10/03 14:39:34;;;;;;;4.05;1.40;;;;;;;;;;5086454;28;20233;-76
2022/10/03 14:42:21;;;;;;;3.42;1.48;;;;;;;;;;5081445;28;20225;-76
2022/10/03 14:44:54;;;;;;;4.55;1.40;;;;;;;;;;5075129;28;20642;-76
2022/10/03 14:47:26;;;;;;;3.63;1.27;;;;;;;;;;5082438;28;20240;-75
2022/10/03 14:49:56;;;;;;;3.80;1.38;;;;;;;;;;5082820;28;20568;-75
2022/10/03 14:52:29;;;;;;;4.07;1.25;;;;;;;;;;5087693;28;20197;-75
2022/10/03 14:54:59;;;;;;;3.17;1.00;;;;;;;;;;5090311;28;20229;-76
2022/10/03 14:57:32;;;;;;;3.88;1.25;;;;;;;;;;5089411;28;20255;-75
2022/10/03 15:00:24;;;;;;;4.05;1.38;;;;;;;;;;5085747;28;20220;-75
2022/10/03 15:02:54;;;;;;;3.42;1.30;;;;;;;;;;5083370;28;20258;-74
2022/10/03 15:05:33;;;;;;;2.78;1.20;;;;;;;;;;5085114;28;20234;-75
2022/10/03 15:08:02;;;;;;;3.33;1.40;;;;;;;;;;5075695;28;20647;-76
2022/10/03 15:10:32;;;;;;;3.60;1.15;;;;;;;;;;5077620;28;20281;-75
2022/10/03 15:13:05;;;;;;;5.38;1.33;;;;;;;;;;5081597;28;20222;-75
2022/10/03 15:15:36;;;;;;;4.15;1.27;;;;;;;;;;5078176;28;20241;-75
2022/10/03 15:18:08;;;;;;;4.15;1.30;;;;;;;;;;5093413;28;20680;-75
2022/10/03 15:20:37;;;;;;;4.22;1.40;;;;;;;;;;5087607;28;20639;-76
2022/10/03 15:23:07;;;;;;;4.68;1.38;;;;;;;;;;5086815;28;20218;-76
2022/10/03 15:25:37;;;;;;;5.10;1.23;;;;;;;;;;5081080;28;20198;-76
2022/10/03 15:28:11;;;;;;;4.80;1.27;;;;;;;;;;5090637;28;20320;-76
2022/10/03 15:30:41;;;;;;;4.00;1.38;;;;;;;;;;5083349;28;20201;-76
2022/10/03 15:33:15;;;;;;;2.53;1.20;;;;;;;;;;5081952;28;20253;-76
2022/10/03 15:35:47;;;;;;;6.32;1.38;;;;;;;;;;5080467;28;20622;-76
2022/10/03 15:38:17;;;;;;;7.72;1.48;;;;;;;;;;5086137;28;20216;-76
2022/10/03 15:40:52;;;;;;;4.32;1.50;;;;;;;;;;5089278;28;20430;-76
2022/10/03 15:43:28;;;;;;;3.80;1.40;;;;;;;;;;5082380;28;20746;-76
2022/10/03 15:45:57;;;;;;;4.57;1.70;;;;;;;;;;5090082;28;20213;-76
2022/10/03 15:48:30;;;;;;;4.55;1.77;;;;;;;;;;5092677;28;20286;-77
2022/10/03 15:50:58;;;;;;;3.42;1.67;;;;;;;;;;5084873;28;20225;-76
2022/10/03 15:53:30;;;;;;;4.22;1.80;;;;;;;;;;5093039;28;20763;-76
2022/10/03 15:56:11;;;;;;;5.07;1.33;;;;;;;;;;5091034;28;20622;-76
2022/10/03 15:58:55;;;;;;;5.10;1.67;;;;;;;;;;5085354;28;20643;-76
2022/10/03 16:01:26;;;;;;;4.63;1.50;;;;;;;;;;5090042;28;20201;-76
2022/10/03 16:03:58;;;;;;;4.13;1.70;;;;;;;;;;5084351;28;20686;-76
2022/10/03 16:06:32;;;;;;;4.73;1.40;;;;;;;;;;5086322;28;20214;-76